This is the latest recevied weather packets stored in our database for station/object CE4ERM-13. If no packets are shown the sender has not sent any weather packets the latest 10 day(s).
| Time | Temp. | Humidity | Pressure | Rain* | Wind** | Luminosity | Snow |
|---|---|---|---|---|---|---|---|
| 1777520170 | 23.33° C | 41% | 1013.7 hPa | - | - | - | - |
| 1777520026 | 21.67° C | 41% | 1015.1 hPa | - | - | - | - |
| 1777519579 | 21.67° C | 41% | 1016.6 hPa | - | - | - | - |
| 1777519426 | 21.67° C | 41% | 1016.6 hPa | - | - | - | - |
| 1777518969 | 23.33° C | 40% | 1013.9 hPa | - | - | - | - |
| 1777518825 | 21.67° C | 40% | 1015.7 hPa | - | - | - | - |
| 1777518368 | 23.33° C | 42% | 1013.5 hPa | - | - | - | - |
| 1777518226 | 22.22° C | 41% | 1014.1 hPa | - | - | - | - |
| 1777517768 | 23.89° C | 41% | 1012.7 hPa | - | - | - | - |
| 1777517626 | 22.22° C | 41% | 1014.1 hPa | - | - | - | - |
| 1777517168 | 23.33° C | 40% | 1012.8 hPa | - | - | - | - |
| 1777517024 | 22.22° C | 41% | 1014.6 hPa | - | - | - | - |
| 1777516424 | 22.22° C | 40% | 1014.8 hPa | - | - | - | - |
| 1777515966 | 24.44° C | 39% | 1013.7 hPa | - | - | - | - |
| 1777515824 | 22.78° C | 41% | 1014.5 hPa | - | - | - | - |
| 1777515366 | 25° C | 39% | 1014.6 hPa | - | - | - | - |
| 1777515224 | 22.78° C | 41% | 1014.4 hPa | - | - | - | - |
| 1777514767 | 24.44° C | 39% | 1013.1 hPa | - | - | - | - |
| 1777514623 | 22.78° C | 40% | 1013.2 hPa | - | - | - | - |
| 1777514166 | 25° C | 39% | 1012.8 hPa | - | - | - | - |
| 1777514023 | 22.78° C | 41% | 1011.1 hPa | - | - | - | - |
| 1777513617 | 25° C | 38% | 1011.9 hPa | - | - | - | - |
| 1777513565 | 25° C | 38% | 1011.9 hPa | - | - | - | - |
| 1777513423 | 22.78° C | 40% | 1014.7 hPa | - | - | - | - |
| 1777512966 | 25.56° C | 37% | 1012.7 hPa | - | - | - | - |
* Rain since midnight (hover to see other rain measurements)
** Current wind speed in m/s (hover to see current wind gust speed)